sensor_id;sensor_type;location;lat;lon;timestamp;temperature;humidity
66343;DHT22;53144;51.524;5.080;2023-12-29T00:00:33;11.05;84.16
66343;DHT22;53144;51.524;5.080;2023-12-29T00:02:58;11.04;84.22
66343;DHT22;53144;51.524;5.080;2023-12-29T00:05:24;11.09;83.89
66343;DHT22;53144;51.524;5.080;2023-12-29T00:07:49;11.05;84.27
66343;DHT22;53144;51.524;5.080;2023-12-29T00:10:15;11.09;84.00
66343;DHT22;53144;51.524;5.080;2023-12-29T00:12:40;11.11;84.12
66343;DHT22;53144;51.524;5.080;2023-12-29T00:15:06;11.11;84.15
66343;DHT22;53144;51.524;5.080;2023-12-29T00:17:31;11.08;84.12
66343;DHT22;53144;51.524;5.080;2023-12-29T00:19:57;11.06;84.17
66343;DHT22;53144;51.524;5.080;2023-12-29T00:22:22;11.08;84.39
66343;DHT22;53144;51.524;5.080;2023-12-29T00:24:50;11.08;84.23
66343;DHT22;53144;51.524;5.080;2023-12-29T00:27:15;11.02;84.33
66343;DHT22;53144;51.524;5.080;2023-12-29T00:29:41;11.01;84.75
66343;DHT22;53144;51.524;5.080;2023-12-29T00:32:07;11.01;85.58
66343;DHT22;53144;51.524;5.080;2023-12-29T00:34:32;10.91;86.48
66343;DHT22;53144;51.524;5.080;2023-12-29T00:36:57;10.79;86.79
66343;DHT22;53144;51.524;5.080;2023-12-29T00:39:23;10.65;88.30
66343;DHT22;53144;51.524;5.080;2023-12-29T00:41:54;10.51;88.76
66343;DHT22;53144;51.524;5.080;2023-12-29T00:44:21;10.40;90.00
66343;DHT22;53144;51.524;5.080;2023-12-29T00:46:46;10.34;90.41
66343;DHT22;53144;51.524;5.080;2023-12-29T00:49:12;10.32;90.29
66343;DHT22;53144;51.524;5.080;2023-12-29T00:51:40;10.29;90.45
66343;DHT22;53144;51.524;5.080;2023-12-29T00:54:08;10.34;89.79
66343;DHT22;53144;51.524;5.080;2023-12-29T00:56:34;10.23;90.20
66343;DHT22;53144;51.524;5.080;2023-12-29T00:58:59;10.23;90.38
66343;DHT22;53144;51.524;5.080;2023-12-29T01:01:24;10.16;91.68
66343;DHT22;53144;51.524;5.080;2023-12-29T01:03:50;10.09;92.51
66343;DHT22;53144;51.524;5.080;2023-12-29T01:06:19;9.99;93.17
66343;DHT22;53144;51.524;5.080;2023-12-29T01:08:45;9.83;94.79
66343;DHT22;53144;51.524;5.080;2023-12-29T01:11:10;9.74;94.76
66343;DHT22;53144;51.524;5.080;2023-12-29T01:13:35;9.69;95.86
66343;DHT22;53144;51.524;5.080;2023-12-29T01:16:01;9.62;95.85
66343;DHT22;53144;51.524;5.080;2023-12-29T01:18:26;9.57;96.43
66343;DHT22;53144;51.524;5.080;2023-12-29T01:20:51;9.48;97.31
66343;DHT22;53144;51.524;5.080;2023-12-29T01:23:17;9.44;97.55
66343;DHT22;53144;51.524;5.080;2023-12-29T01:25:43;9.41;98.03
66343;DHT22;53144;51.524;5.080;2023-12-29T01:28:08;9.38;98.10
66343;DHT22;53144;51.524;5.080;2023-12-29T01:30:34;9.34;97.84
66343;DHT22;53144;51.524;5.080;2023-12-29T01:32:59;9.35;98.30
66343;DHT22;53144;51.524;5.080;2023-12-29T01:35:24;9.35;98.16
66343;DHT22;53144;51.524;5.080;2023-12-29T01:37:50;9.40;97.95
66343;DHT22;53144;51.524;5.080;2023-12-29T01:40:15;9.44;97.19
66343;DHT22;53144;51.524;5.080;2023-12-29T01:42:41;9.44;97.55
66343;DHT22;53144;51.524;5.080;2023-12-29T01:45:06;9.49;96.93
66343;DHT22;53144;51.524;5.080;2023-12-29T01:47:38;9.48;97.22
66343;DHT22;53144;51.524;5.080;2023-12-29T01:50:03;9.54;95.97
66343;DHT22;53144;51.524;5.080;2023-12-29T01:52:29;9.55;96.97
66343;DHT22;53144;51.524;5.080;2023-12-29T01:54:54;9.52;96.58
66343;DHT22;53144;51.524;5.080;2023-12-29T01:57:20;9.57;95.87
66343;DHT22;53144;51.524;5.080;2023-12-29T01:59:46;9.59;95.67
66343;DHT22;53144;51.524;5.080;2023-12-29T02:02:13;9.65;95.55
66343;DHT22;53144;51.524;5.080;2023-12-29T02:04:41;9.67;95.38
66343;DHT22;53144;51.524;5.080;2023-12-29T02:07:06;9.72;94.94
66343;DHT22;53144;51.524;5.080;2023-12-29T02:09:32;9.74;94.86
66343;DHT22;53144;51.524;5.080;2023-12-29T02:11:59;9.77;94.72
66343;DHT22;53144;51.524;5.080;2023-12-29T02:14:24;9.88;93.82
66343;DHT22;53144;51.524;5.080;2023-12-29T02:17:14;9.86;93.66
66343;DHT22;53144;51.524;5.080;2023-12-29T02:19:42;9.99;92.58
66343;DHT22;53144;51.524;5.080;2023-12-29T02:22:10;10.02;92.41
66343;DHT22;53144;51.524;5.080;2023-12-29T02:24:37;10.02;92.15
66343;DHT22;53144;51.524;5.080;2023-12-29T02:27:27;10.05;91.81
66343;DHT22;53144;51.524;5.080;2023-12-29T02:30:09;10.10;91.58
66343;DHT22;53144;51.524;5.080;2023-12-29T02:32:38;10.10;91.41
66343;DHT22;53144;51.524;5.080;2023-12-29T02:35:05;10.21;90.69
66343;DHT22;53144;51.524;5.080;2023-12-29T02:37:34;10.29;90.29
66343;DHT22;53144;51.524;5.080;2023-12-29T02:40:01;10.34;89.47
66343;DHT22;53144;51.524;5.080;2023-12-29T02:42:26;10.37;89.60
66343;DHT22;53144;51.524;5.080;2023-12-29T02:44:52;10.37;89.55
66343;DHT22;53144;51.524;5.080;2023-12-29T02:47:17;10.44;88.91
66343;DHT22;53144;51.524;5.080;2023-12-29T02:49:44;10.43;89.43
66343;DHT22;53144;51.524;5.080;2023-12-29T02:52:09;10.46;88.88
66343;DHT22;53144;51.524;5.080;2023-12-29T02:54:35;10.43;89.27
66343;DHT22;53144;51.524;5.080;2023-12-29T02:57:00;10.38;89.60
66343;DHT22;53144;51.524;5.080;2023-12-29T02:59:25;10.41;88.89
66343;DHT22;53144;51.524;5.080;2023-12-29T03:01:51;10.46;88.52
66343;DHT22;53144;51.524;5.080;2023-12-29T03:04:16;10.47;88.80
66343;DHT22;53144;51.524;5.080;2023-12-29T03:06:41;10.40;88.67
66343;DHT22;53144;51.524;5.080;2023-12-29T03:09:07;10.48;88.11
66343;DHT22;53144;51.524;5.080;2023-12-29T03:11:32;10.46;88.14
66343;DHT22;53144;51.524;5.080;2023-12-29T03:13:58;10.44;88.11
66343;DHT22;53144;51.524;5.080;2023-12-29T03:16:23;10.46;87.49
66343;DHT22;53144;51.524;5.080;2023-12-29T03:18:49;10.43;87.70
66343;DHT22;53144;51.524;5.080;2023-12-29T03:21:14;10.50;87.69
66343;DHT22;53144;51.524;5.080;2023-12-29T03:23:39;10.48;87.57
66343;DHT22;53144;51.524;5.080;2023-12-29T03:26:04;10.48;87.44
66343;DHT22;53144;51.524;5.080;2023-12-29T03:28:30;10.50;87.29
66343;DHT22;53144;51.524;5.080;2023-12-29T03:30:55;10.61;86.54
66343;DHT22;53144;51.524;5.080;2023-12-29T03:33:21;10.58;86.94
66343;DHT22;53144;51.524;5.080;2023-12-29T03:35:46;10.57;87.05
66343;DHT22;53144;51.524;5.080;2023-12-29T03:38:12;10.60;87.38
66343;DHT22;53144;51.524;5.080;2023-12-29T03:40:40;10.60;86.54
66343;DHT22;53144;51.524;5.080;2023-12-29T03:43:05;10.63;86.70
66343;DHT22;53144;51.524;5.080;2023-12-29T03:45:30;10.64;86.27
66343;DHT22;53144;51.524;5.080;2023-12-29T03:47:55;10.61;86.78
66343;DHT22;53144;51.524;5.080;2023-12-29T03:50:21;10.63;86.14
66343;DHT22;53144;51.524;5.080;2023-12-29T03:52:47;10.60;86.52
66343;DHT22;53144;51.524;5.080;2023-12-29T03:55:12;10.68;86.15
66343;DHT22;53144;51.524;5.080;2023-12-29T03:57:38;10.63;86.98
66343;DHT22;53144;51.524;5.080;2023-12-29T04:00:04;10.61;86.85
66343;DHT22;53144;51.524;5.080;2023-12-29T04:02:31;10.67;85.88
66343;DHT22;53144;51.524;5.080;2023-12-29T04:04:56;10.67;86.46
66343;DHT22;53144;51.524;5.080;2023-12-29T04:07:22;10.67;86.18
66343;DHT22;53144;51.524;5.080;2023-12-29T04:09:47;10.61;86.72
66343;DHT22;53144;51.524;5.080;2023-12-29T04:12:12;10.65;86.01
66343;DHT22;53144;51.524;5.080;2023-12-29T04:14:38;10.68;85.43
66343;DHT22;53144;51.524;5.080;2023-12-29T04:17:03;10.64;85.95
66343;DHT22;53144;51.524;5.080;2023-12-29T04:19:30;10.61;86.30
66343;DHT22;53144;51.524;5.080;2023-12-29T04:21:55;10.63;85.76
66343;DHT22;53144;51.524;5.080;2023-12-29T04:24:21;10.61;85.95
66343;DHT22;53144;51.524;5.080;2023-12-29T04:26:46;10.61;85.89
66343;DHT22;53144;51.524;5.080;2023-12-29T04:29:12;10.65;85.48
66343;DHT22;53144;51.524;5.080;2023-12-29T04:31:37;10.57;85.98
66343;DHT22;53144;51.524;5.080;2023-12-29T04:34:02;10.60;85.90
66343;DHT22;53144;51.524;5.080;2023-12-29T04:36:28;10.60;86.33
66343;DHT22;53144;51.524;5.080;2023-12-29T04:38:53;10.57;86.38
66343;DHT22;53144;51.524;5.080;2023-12-29T04:41:18;10.63;85.68
66343;DHT22;53144;51.524;5.080;2023-12-29T04:43:44;10.63;85.34
66343;DHT22;53144;51.524;5.080;2023-12-29T04:46:09;10.64;85.42
66343;DHT22;53144;51.524;5.080;2023-12-29T04:48:34;10.63;85.49
66343;DHT22;53144;51.524;5.080;2023-12-29T04:51:00;10.65;85.29
66343;DHT22;53144;51.524;5.080;2023-12-29T04:53:26;10.63;85.62
66343;DHT22;53144;51.524;5.080;2023-12-29T04:55:51;10.57;86.01
66343;DHT22;53144;51.524;5.080;2023-12-29T04:58:17;10.50;86.41
66343;DHT22;53144;51.524;5.080;2023-12-29T05:00:46;10.44;86.95
66343;DHT22;53144;51.524;5.080;2023-12-29T05:03:11;10.43;86.92
66343;DHT22;53144;51.524;5.080;2023-12-29T05:05:36;10.46;86.89
66343;DHT22;53144;51.524;5.080;2023-12-29T05:08:02;10.36;87.33
66343;DHT22;53144;51.524;5.080;2023-12-29T05:10:28;10.46;86.68
66343;DHT22;53144;51.524;5.080;2023-12-29T05:12:53;10.48;86.91
66343;DHT22;53144;51.524;5.080;2023-12-29T05:15:21;10.46;87.06
66343;DHT22;53144;51.524;5.080;2023-12-29T05:17:46;10.48;87.08
66343;DHT22;53144;51.524;5.080;2023-12-29T05:20:12;10.43;87.48
66343;DHT22;53144;51.524;5.080;2023-12-29T05:22:38;10.41;87.64
66343;DHT22;53144;51.524;5.080;2023-12-29T05:25:03;10.32;88.13
66343;DHT22;53144;51.524;5.080;2023-12-29T05:27:29;10.29;87.96
66343;DHT22;53144;51.524;5.080;2023-12-29T05:29:54;10.27;88.46
66343;DHT22;53144;51.524;5.080;2023-12-29T05:32:19;10.29;88.69
66343;DHT22;53144;51.524;5.080;2023-12-29T05:34:44;10.23;88.64
66343;DHT22;53144;51.524;5.080;2023-12-29T05:37:10;10.26;88.74
66343;DHT22;53144;51.524;5.080;2023-12-29T05:39:35;10.19;88.61
66343;DHT22;53144;51.524;5.080;2023-12-29T05:42:01;10.13;88.96
66343;DHT22;53144;51.524;5.080;2023-12-29T05:44:26;10.16;88.77
66343;DHT22;53144;51.524;5.080;2023-12-29T05:46:51;10.16;88.46
66343;DHT22;53144;51.524;5.080;2023-12-29T05:49:17;10.14;89.03
66343;DHT22;53144;51.524;5.080;2023-12-29T05:51:43;10.23;88.48
66343;DHT22;53144;51.524;5.080;2023-12-29T05:54:09;10.26;88.87
66343;DHT22;53144;51.524;5.080;2023-12-29T05:56:34;10.13;90.76
66343;DHT22;53144;51.524;5.080;2023-12-29T05:59:00;9.90;92.95
66343;DHT22;53144;51.524;5.080;2023-12-29T06:01:25;9.69;94.15
66343;DHT22;53144;51.524;5.080;2023-12-29T06:03:50;9.55;95.24
66343;DHT22;53144;51.524;5.080;2023-12-29T06:06:16;9.55;95.23
66343;DHT22;53144;51.524;5.080;2023-12-29T06:08:41;9.49;94.97
66343;DHT22;53144;51.524;5.080;2023-12-29T06:11:07;9.48;95.38
66343;DHT22;53144;51.524;5.080;2023-12-29T06:13:32;9.52;94.99
66343;DHT22;53144;51.524;5.080;2023-12-29T06:15:57;9.49;94.88
66343;DHT22;53144;51.524;5.080;2023-12-29T06:18:23;9.61;94.40
66343;DHT22;53144;51.524;5.080;2023-12-29T06:20:48;9.65;93.84
66343;DHT22;53144;51.524;5.080;2023-12-29T06:23:14;9.81;92.65
66343;DHT22;53144;51.524;5.080;2023-12-29T06:25:42;9.75;93.07
66343;DHT22;53144;51.524;5.080;2023-12-29T06:28:07;9.81;92.71
66343;DHT22;53144;51.524;5.080;2023-12-29T06:30:33;9.82;92.66
66343;DHT22;53144;51.524;5.080;2023-12-29T06:32:59;9.86;93.04
66343;DHT22;53144;51.524;5.080;2023-12-29T06:35:24;9.77;93.99
66343;DHT22;53144;51.524;5.080;2023-12-29T06:37:49;9.72;94.11
66343;DHT22;53144;51.524;5.080;2023-12-29T06:40:16;9.74;94.09
66343;DHT22;53144;51.524;5.080;2023-12-29T06:42:42;9.75;93.39
66343;DHT22;53144;51.524;5.080;2023-12-29T06:45:07;9.81;92.89
66343;DHT22;53144;51.524;5.080;2023-12-29T06:47:33;9.81;93.24
66343;DHT22;53144;51.524;5.080;2023-12-29T06:49:58;9.85;92.92
66343;DHT22;53144;51.524;5.080;2023-12-29T06:52:24;9.88;92.88
66343;DHT22;53144;51.524;5.080;2023-12-29T06:54:49;9.92;92.55
66343;DHT22;53144;51.524;5.080;2023-12-29T06:57:14;9.96;92.58
66343;DHT22;53144;51.524;5.080;2023-12-29T06:59:41;9.95;92.85
66343;DHT22;53144;51.524;5.080;2023-12-29T07:02:07;9.96;93.09
66343;DHT22;53144;51.524;5.080;2023-12-29T07:04:32;9.90;93.69
66343;DHT22;53144;51.524;5.080;2023-12-29T07:06:59;9.82;94.73
66343;DHT22;53144;51.524;5.080;2023-12-29T07:09:25;9.72;95.15
66343;DHT22;53144;51.524;5.080;2023-12-29T07:11:50;9.63;95.45
66343;DHT22;53144;51.524;5.080;2023-12-29T07:14:16;9.63;95.50
66343;DHT22;53144;51.524;5.080;2023-12-29T07:16:42;9.58;95.70
66343;DHT22;53144;51.524;5.080;2023-12-29T07:19:07;9.67;95.00
66343;DHT22;53144;51.524;5.080;2023-12-29T07:21:33;9.71;95.39
66343;DHT22;53144;51.524;5.080;2023-12-29T07:23:59;9.69;95.26
66343;DHT22;53144;51.524;5.080;2023-12-29T07:26:24;9.71;94.93
66343;DHT22;53144;51.524;5.080;2023-12-29T07:28:50;9.78;94.55
66343;DHT22;53144;51.524;5.080;2023-12-29T07:31:22;9.82;94.28
66343;DHT22;53144;51.524;5.080;2023-12-29T07:33:49;9.85;93.99
66343;DHT22;53144;51.524;5.080;2023-12-29T07:36:15;9.90;93.67
66343;DHT22;53144;51.524;5.080;2023-12-29T07:38:40;9.93;93.69
66343;DHT22;53144;51.524;5.080;2023-12-29T07:41:05;9.89;93.81
66343;DHT22;53144;51.524;5.080;2023-12-29T07:43:31;9.90;93.95
66343;DHT22;53144;51.524;5.080;2023-12-29T07:45:57;9.95;93.46
66343;DHT22;53144;51.524;5.080;2023-12-29T07:48:22;9.96;93.59
66343;DHT22;53144;51.524;5.080;2023-12-29T07:50:47;9.93;93.60
66343;DHT22;53144;51.524;5.080;2023-12-29T07:53:16;9.96;93.51
66343;DHT22;53144;51.524;5.080;2023-12-29T07:55:42;9.93;93.78
66343;DHT22;53144;51.524;5.080;2023-12-29T07:58:07;9.93;93.83
66343;DHT22;53144;51.524;5.080;2023-12-29T08:00:35;9.93;93.67
66343;DHT22;53144;51.524;5.080;2023-12-29T08:03:00;9.92;93.93
66343;DHT22;53144;51.524;5.080;2023-12-29T08:05:25;9.88;94.28
66343;DHT22;53144;51.524;5.080;2023-12-29T08:07:51;9.83;94.31
66343;DHT22;53144;51.524;5.080;2023-12-29T08:10:16;9.88;93.87
66343;DHT22;53144;51.524;5.080;2023-12-29T08:12:42;9.93;93.66
66343;DHT22;53144;51.524;5.080;2023-12-29T08:15:07;9.92;93.71
66343;DHT22;53144;51.524;5.080;2023-12-29T08:17:33;9.96;93.41
66343;DHT22;53144;51.524;5.080;2023-12-29T08:19:58;9.93;93.51
66343;DHT22;53144;51.524;5.080;2023-12-29T08:22:23;9.90;93.96
66343;DHT22;53144;51.524;5.080;2023-12-29T08:24:49;9.96;93.54
66343;DHT22;53144;51.524;5.080;2023-12-29T08:27:14;9.92;93.79
66343;DHT22;53144;51.524;5.080;2023-12-29T08:29:40;9.88;94.09
66343;DHT22;53144;51.524;5.080;2023-12-29T08:32:06;9.88;94.32
66343;DHT22;53144;51.524;5.080;2023-12-29T08:34:32;9.88;93.61
66343;DHT22;53144;51.524;5.080;2023-12-29T08:36:59;9.89;93.62
66343;DHT22;53144;51.524;5.080;2023-12-29T08:39:24;9.86;93.69
66343;DHT22;53144;51.524;5.080;2023-12-29T08:41:50;9.88;93.79
66343;DHT22;53144;51.524;5.080;2023-12-29T08:44:16;9.98;93.33
66343;DHT22;53144;51.524;5.080;2023-12-29T08:46:41;9.99;93.27
66343;DHT22;53144;51.524;5.080;2023-12-29T08:49:07;10.00;93.24
66343;DHT22;53144;51.524;5.080;2023-12-29T08:51:32;10.00;93.13
66343;DHT22;53144;51.524;5.080;2023-12-29T08:53:58;10.03;93.15
66343;DHT22;53144;51.524;5.080;2023-12-29T08:56:23;10.02;93.13
66343;DHT22;53144;51.524;5.080;2023-12-29T08:58:48;9.99;94.24
66343;DHT22;53144;51.524;5.080;2023-12-29T09:01:14;9.85;95.30
66343;DHT22;53144;51.524;5.080;2023-12-29T09:03:39;9.77;96.26
66343;DHT22;53144;51.524;5.080;2023-12-29T09:06:05;9.74;96.16
66343;DHT22;53144;51.524;5.080;2023-12-29T09:08:30;9.71;96.35
66343;DHT22;53144;51.524;5.080;2023-12-29T09:10:56;9.77;96.29
66343;DHT22;53144;51.524;5.080;2023-12-29T09:13:21;9.78;95.95
66343;DHT22;53144;51.524;5.080;2023-12-29T09:15:50;9.83;95.54
66343;DHT22;53144;51.524;5.080;2023-12-29T09:18:15;9.86;96.01
66343;DHT22;53144;51.524;5.080;2023-12-29T09:20:41;9.89;95.29
66343;DHT22;53144;51.524;5.080;2023-12-29T09:23:06;9.89;95.25
66343;DHT22;53144;51.524;5.080;2023-12-29T09:25:32;9.93;95.44
66343;DHT22;53144;51.524;5.080;2023-12-29T09:27:57;9.93;95.46
66343;DHT22;53144;51.524;5.080;2023-12-29T09:30:22;9.99;95.09
66343;DHT22;53144;51.524;5.080;2023-12-29T09:32:51;9.99;94.86
66343;DHT22;53144;51.524;5.080;2023-12-29T09:35:16;9.96;95.12
66343;DHT22;53144;51.524;5.080;2023-12-29T09:37:42;10.06;94.77
66343;DHT22;53144;51.524;5.080;2023-12-29T09:40:09;10.09;94.62
66343;DHT22;53144;51.524;5.080;2023-12-29T09:42:37;10.12;94.56
66343;DHT22;53144;51.524;5.080;2023-12-29T09:45:07;10.20;94.00
66343;DHT22;53144;51.524;5.080;2023-12-29T09:47:37;10.27;93.34
66343;DHT22;53144;51.524;5.080;2023-12-29T09:50:05;10.34;92.37
66343;DHT22;53144;51.524;5.080;2023-12-29T09:52:31;10.43;91.68
66343;DHT22;53144;51.524;5.080;2023-12-29T09:54:57;10.46;91.15
66343;DHT22;53144;51.524;5.080;2023-12-29T09:57:22;10.48;91.65
66343;DHT22;53144;51.524;5.080;2023-12-29T09:59:49;10.53;91.03
66343;DHT22;53144;51.524;5.080;2023-12-29T10:02:20;10.56;90.12
66343;DHT22;53144;51.524;5.080;2023-12-29T10:04:47;10.60;90.24
66343;DHT22;53144;51.524;5.080;2023-12-29T10:07:31;10.68;89.10
66343;DHT22;53144;51.524;5.080;2023-12-29T10:09:58;10.72;88.59
66343;DHT22;53144;51.524;5.080;2023-12-29T10:12:24;10.78;88.47
66343;DHT22;53144;51.524;5.080;2023-12-29T10:15:11;10.78;88.42
66343;DHT22;53144;51.524;5.080;2023-12-29T10:23:16;10.81;88.30
66343;DHT22;53144;51.524;5.080;2023-12-29T10:25:58;10.86;87.22
66343;DHT22;53144;51.524;5.080;2023-12-29T10:28:24;10.94;87.54
66343;DHT22;53144;51.524;5.080;2023-12-29T10:30:49;10.92;87.66
66343;DHT22;53144;51.524;5.080;2023-12-29T10:33:20;10.95;87.08
66343;DHT22;53144;51.524;5.080;2023-12-29T10:35:57;10.99;87.11
66343;DHT22;53144;51.524;5.080;2023-12-29T10:38:24;10.89;87.98
66343;DHT22;53144;51.524;5.080;2023-12-29T10:40:49;10.95;87.73
66343;DHT22;53144;51.524;5.080;2023-12-29T10:43:21;10.98;87.43
66343;DHT22;53144;51.524;5.080;2023-12-29T10:45:47;10.98;87.87
66343;DHT22;53144;51.524;5.080;2023-12-29T10:48:12;11.02;87.49
66343;DHT22;53144;51.524;5.080;2023-12-29T10:50:46;11.02;87.81
66343;DHT22;53144;51.524;5.080;2023-12-29T10:53:12;11.06;87.65
66343;DHT22;53144;51.524;5.080;2023-12-29T10:55:38;10.99;88.25
66343;DHT22;53144;51.524;5.080;2023-12-29T10:58:03;11.02;87.99
66343;DHT22;53144;51.524;5.080;2023-12-29T11:00:30;11.09;87.84
66343;DHT22;53144;51.524;5.080;2023-12-29T11:02:56;11.02;87.98
66343;DHT22;53144;51.524;5.080;2023-12-29T11:05:24;11.08;87.61
66343;DHT22;53144;51.524;5.080;2023-12-29T11:07:50;11.14;87.65
66343;DHT22;53144;51.524;5.080;2023-12-29T11:10:22;11.16;87.94
66343;DHT22;53144;51.524;5.080;2023-12-29T11:12:51;11.20;87.63
66343;DHT22;53144;51.524;5.080;2023-12-29T11:15:17;11.23;87.80
66343;DHT22;53144;51.524;5.080;2023-12-29T11:17:43;11.20;88.44
66343;DHT22;53144;51.524;5.080;2023-12-29T11:20:17;11.20;88.21
66343;DHT22;53144;51.524;5.080;2023-12-29T11:22:46;11.25;88.13
66343;DHT22;53144;51.524;5.080;2023-12-29T11:25:11;11.15;88.69
66343;DHT22;53144;51.524;5.080;2023-12-29T11:27:37;11.20;88.72
66343;DHT22;53144;51.524;5.080;2023-12-29T11:30:03;11.23;88.43
66343;DHT22;53144;51.524;5.080;2023-12-29T11:32:47;11.20;89.03
66343;DHT22;53144;51.524;5.080;2023-12-29T11:35:43;11.12;89.50
66343;DHT22;53144;51.524;5.080;2023-12-29T11:43:32;10.85;91.18
66343;DHT22;53144;51.524;5.080;2023-12-29T11:45:58;10.68;92.20
66343;DHT22;53144;51.524;5.080;2023-12-29T11:48:55;10.60;93.11
66343;DHT22;53144;51.524;5.080;2023-12-29T11:51:43;10.54;93.53
66343;DHT22;53144;51.524;5.080;2023-12-29T11:54:09;10.44;94.60
66343;DHT22;53144;51.524;5.080;2023-12-29T11:56:36;10.34;95.70
66343;DHT22;53144;51.524;5.080;2023-12-29T11:59:18;10.30;96.46
66343;DHT22;53144;51.524;5.080;2023-12-29T12:01:48;10.21;96.96
66343;DHT22;53144;51.524;5.080;2023-12-29T12:04:38;10.23;97.02
66343;DHT22;53144;51.524;5.080;2023-12-29T12:09:50;10.14;97.28
66343;DHT22;53144;51.524;5.080;2023-12-29T12:12:41;10.19;97.64
66343;DHT22;53144;51.524;5.080;2023-12-29T12:15:32;10.14;97.11
66343;DHT22;53144;51.524;5.080;2023-12-29T12:18:03;10.23;97.40
66343;DHT22;53144;51.524;5.080;2023-12-29T12:20:31;10.23;96.89
66343;DHT22;53144;51.524;5.080;2023-12-29T12:25:22;10.23;97.48
66343;DHT22;53144;51.524;5.080;2023-12-29T12:27:47;10.21;97.56
66343;DHT22;53144;51.524;5.080;2023-12-29T12:30:21;10.23;97.36
66343;DHT22;53144;51.524;5.080;2023-12-29T12:32:56;10.23;97.59
66343;DHT22;53144;51.524;5.080;2023-12-29T12:35:22;10.23;97.43
66343;DHT22;53144;51.524;5.080;2023-12-29T12:37:47;10.23;97.38
66343;DHT22;53144;51.524;5.080;2023-12-29T12:40:27;10.16;97.40
66343;DHT22;53144;51.524;5.080;2023-12-29T12:42:52;10.20;97.37
66343;DHT22;53144;51.524;5.080;2023-12-29T12:45:21;10.21;97.52
66343;DHT22;53144;51.524;5.080;2023-12-29T12:47:52;10.19;98.11
66343;DHT22;53144;51.524;5.080;2023-12-29T12:50:19;10.19;98.39
66343;DHT22;53144;51.524;5.080;2023-12-29T12:52:45;10.09;98.41
66343;DHT22;53144;51.524;5.080;2023-12-29T12:55:11;10.12;98.58
66343;DHT22;53144;51.524;5.080;2023-12-29T12:57:37;10.07;98.95
66343;DHT22;53144;51.524;5.080;2023-12-29T13:00:02;9.98;99.36
66343;DHT22;53144;51.524;5.080;2023-12-29T13:02:28;9.93;99.75
66343;DHT22;53144;51.524;5.080;2023-12-29T13:04:54;9.90;99.77
66343;DHT22;53144;51.524;5.080;2023-12-29T13:07:20;9.89;99.99
66343;DHT22;53144;51.524;5.080;2023-12-29T13:09:47;9.92;99.99
66343;DHT22;53144;51.524;5.080;2023-12-29T13:12:15;9.93;99.99
66343;DHT22;53144;51.524;5.080;2023-12-29T13:14:41;9.96;99.99
66343;DHT22;53144;51.524;5.080;2023-12-29T13:17:08;9.99;99.99
66343;DHT22;53144;51.524;5.080;2023-12-29T13:19:36;10.03;99.99
66343;DHT22;53144;51.524;5.080;2023-12-29T13:22:05;10.03;99.99
66343;DHT22;53144;51.524;5.080;2023-12-29T13:24:32;9.99;99.99
66343;DHT22;53144;51.524;5.080;2023-12-29T13:27:05;10.06;99.99
66343;DHT22;53144;51.524;5.080;2023-12-29T13:29:31;10.12;99.99
66343;DHT22;53144;51.524;5.080;2023-12-29T13:32:10;10.20;99.84
66343;DHT22;53144;51.524;5.080;2023-12-29T13:40:16;10.37;99.28
66343;DHT22;53144;51.524;5.080;2023-12-29T13:42:45;10.43;98.92
66343;DHT22;53144;51.524;5.080;2023-12-29T13:45:13;10.40;98.23
66343;DHT22;53144;51.524;5.080;2023-12-29T13:47:39;10.44;97.97
66343;DHT22;53144;51.524;5.080;2023-12-29T13:50:05;10.47;97.18
66343;DHT22;53144;51.524;5.080;2023-12-29T13:52:36;10.46;97.44
66343;DHT22;53144;51.524;5.080;2023-12-29T13:55:01;10.50;96.84
66343;DHT22;53144;51.524;5.080;2023-12-29T13:57:33;10.46;96.10
66343;DHT22;53144;51.524;5.080;2023-12-29T14:00:19;10.48;95.52
66343;DHT22;53144;51.524;5.080;2023-12-29T14:08:51;10.56;95.80
66343;DHT22;53144;51.524;5.080;2023-12-29T14:11:17;10.54;95.79
66343;DHT22;53144;51.524;5.080;2023-12-29T14:13:44;10.63;94.97
66343;DHT22;53144;51.524;5.080;2023-12-29T14:16:11;10.63;95.04
66343;DHT22;53144;51.524;5.080;2023-12-29T14:18:57;10.60;95.05
66343;DHT22;53144;51.524;5.080;2023-12-29T14:21:29;10.57;95.38
66343;DHT22;53144;51.524;5.080;2023-12-29T14:24:09;10.50;95.77
66343;DHT22;53144;51.524;5.080;2023-12-29T14:27:17;10.54;94.99
66343;DHT22;53144;51.524;5.080;2023-12-29T14:29:24;10.48;95.77
66343;DHT22;53144;51.524;5.080;2023-12-29T14:31:50;10.43;96.20
66343;DHT22;53144;51.524;5.080;2023-12-29T14:34:17;10.37;96.54
66343;DHT22;53144;51.524;5.080;2023-12-29T14:36:42;10.33;96.69
66343;DHT22;53144;51.524;5.080;2023-12-29T14:39:09;10.26;97.44
66343;DHT22;53144;51.524;5.080;2023-12-29T14:41:37;10.26;96.92
66343;DHT22;53144;51.524;5.080;2023-12-29T14:44:03;10.20;97.20
66343;DHT22;53144;51.524;5.080;2023-12-29T14:46:28;10.07;97.52
66343;DHT22;53144;51.524;5.080;2023-12-29T14:48:57;9.93;98.38
66343;DHT22;53144;51.524;5.080;2023-12-29T14:51:23;9.79;98.62
66343;DHT22;53144;51.524;5.080;2023-12-29T14:53:51;9.69;98.74
66343;DHT22;53144;51.524;5.080;2023-12-29T14:56:17;9.41;96.78
66343;DHT22;53144;51.524;5.080;2023-12-29T14:58:43;9.28;97.01
66343;DHT22;53144;51.524;5.080;2023-12-29T15:01:09;9.23;98.37
66343;DHT22;53144;51.524;5.080;2023-12-29T15:03:35;9.23;98.47
66343;DHT22;53144;51.524;5.080;2023-12-29T15:06:01;9.27;98.69
66343;DHT22;53144;51.524;5.080;2023-12-29T15:08:27;9.31;99.96
66343;DHT22;53144;51.524;5.080;2023-12-29T15:10:57;9.31;99.99
66343;DHT22;53144;51.524;5.080;2023-12-29T15:13:23;9.32;99.99
66343;DHT22;53144;51.524;5.080;2023-12-29T15:15:50;9.35;99.99
66343;DHT22;53144;51.524;5.080;2023-12-29T15:18:15;9.40;99.99
66343;DHT22;53144;51.524;5.080;2023-12-29T15:20:42;9.40;99.99
66343;DHT22;53144;51.524;5.080;2023-12-29T15:23:07;9.48;99.99
66343;DHT22;53144;51.524;5.080;2023-12-29T15:25:33;9.48;99.99
66343;DHT22;53144;51.524;5.080;2023-12-29T15:27:59;9.49;99.99
66343;DHT22;53144;51.524;5.080;2023-12-29T15:30:24;9.55;99.99
66343;DHT22;53144;51.524;5.080;2023-12-29T15:32:50;9.51;99.99
66343;DHT22;53144;51.524;5.080;2023-12-29T15:35:15;9.54;99.99
66343;DHT22;53144;51.524;5.080;2023-12-29T15:37:40;9.55;99.99
66343;DHT22;53144;51.524;5.080;2023-12-29T15:40:06;9.54;99.99
66343;DHT22;53144;51.524;5.080;2023-12-29T15:42:32;9.57;99.99
66343;DHT22;53144;51.524;5.080;2023-12-29T15:44:57;9.58;99.99
66343;DHT22;53144;51.524;5.080;2023-12-29T15:47:23;9.55;99.99
66343;DHT22;53144;51.524;5.080;2023-12-29T15:49:48;9.61;99.99
66343;DHT22;53144;51.524;5.080;2023-12-29T15:52:14;9.61;99.99
66343;DHT22;53144;51.524;5.080;2023-12-29T15:54:39;9.62;99.99
66343;DHT22;53144;51.524;5.080;2023-12-29T15:57:05;9.65;99.92
66343;DHT22;53144;51.524;5.080;2023-12-29T15:59:39;9.68;99.50
66343;DHT22;53144;51.524;5.080;2023-12-29T16:02:04;9.68;99.36
66343;DHT22;53144;51.524;5.080;2023-12-29T16:04:30;9.69;99.45